Time;durP1;ratioP1;P1;durP2;ratioP2;P2;SDS_P1;SDS_P2;PMS_P1;PMS_P2;Temp;Humidity;BMP_temperature;BMP_pressure;BME280_temperature;BME280_humidity;BME280_pressure;Samples;Min_cycle;Max_cycle;Signal;HPM_P1;HPM_P2
2022/02/06 00:02:46;;;;;;;6.37;2.42;;;;;;;3.18;80.64;100438.13;1694283;84;28133;-79
2022/02/06 00:05:31;;;;;;;6.35;2.37;;;;;;;3.20;80.61;100434.75;1691608;84;21027;-78
2022/02/06 00:08:16;;;;;;;3.10;1.93;;;;;;;3.22;80.61;100431.80;1695071;84;21409;-77
2022/02/06 00:11:01;;;;;;;9.38;2.42;;;;;;;3.25;80.61;100427.14;1696326;84;20937;-80
2022/02/06 00:13:45;;;;;;;4.33;1.95;;;;;;;3.26;80.57;100435.24;1696272;84;20933;-79
2022/02/06 00:16:29;;;;;;;5.97;2.40;;;;;;;3.27;80.59;100426.31;1691720;83;20925;-80
2022/02/06 00:19:14;;;;;;;5.05;1.75;;;;;;;3.28;80.59;100425.47;1724135;83;22125;-80
2022/02/06 00:22:00;;;;;;;6.55;2.22;;;;;;;3.29;80.58;100425.05;1696580;83;21075;-79
2022/02/06 00:24:54;;;;;;;3.10;1.72;;;;;;;3.29;80.58;100417.39;1693509;84;21048;-79
2022/02/06 00:27:44;;;;;;;3.77;1.92;;;;;;;3.29;80.60;100414.83;1694501;84;21087;-79
2022/02/06 00:39:16;;;;;;;7.87;2.20;;;;;;;3.30;80.63;100402.07;1693280;84;21068;-78
2022/02/06 00:42:00;;;;;;;3.85;1.90;;;;;;;3.29;80.65;100395.67;1691980;84;20969;-78
2022/02/06 00:44:45;;;;;;;4.65;1.75;;;;;;;3.28;80.66;100388.84;1692416;84;21091;-78
2022/02/06 00:47:29;;;;;;;4.70;2.00;;;;;;;3.26;80.68;100393.08;1691361;84;21100;-78
2022/02/06 00:50:14;;;;;;;3.72;2.17;;;;;;;3.25;80.69;100390.95;1692942;84;21394;-78
2022/02/06 00:53:05;;;;;;;5.08;1.85;;;;;;;3.24;80.68;100387.09;1693471;84;21773;-78
2022/02/06 00:55:47;;;;;;;5.47;2.30;;;;;;;3.23;80.70;100388.80;1691087;84;21115;-78
2022/02/06 00:58:32;;;;;;;4.85;2.17;;;;;;;3.24;80.75;100380.71;1695120;84;21135;-79
2022/02/06 01:01:17;;;;;;;7.80;2.25;;;;;;;3.22;80.72;100376.86;1694965;84;21073;-79
2022/02/06 01:04:01;;;;;;;4.65;1.90;;;;;;;3.22;80.74;100370.89;1696429;84;21534;-79
2022/02/06 01:06:46;;;;;;;7.97;2.10;;;;;;;3.21;80.79;100373.02;1696584;84;21028;-79
2022/02/06 01:09:31;;;;;;;4.10;1.67;;;;;;;3.19;80.77;100361.50;1695635;84;21124;-79
2022/02/06 01:12:21;;;;;;;5.67;2.12;;;;;;;3.18;80.82;100357.66;1694794;84;21064;-78
2022/02/06 01:15:08;;;;;;;;;;;;;;;3.15;80.85;100357.62;1697118;84;21072;-79
2022/02/06 01:17:59;;;;;;;3.80;1.95;;;;;;;3.13;80.90;100347.39;1694348;84;20209;-78
2022/02/06 01:20:42;;;;;;;6.60;1.75;;;;;;;3.09;80.84;100335.46;1670909;84;21662;-78
2022/02/06 01:23:28;;;;;;;2.95;1.98;;;;;;;3.06;80.91;100323.94;1694169;84;21119;-78
2022/02/06 01:26:19;;;;;;;5.05;2.40;;;;;;;3.05;80.89;100335.41;1694294;84;21072;-78
2022/02/06 01:29:07;;;;;;;2.85;1.60;;;;;;;3.02;80.96;100326.45;1694421;84;21052;-78
2022/02/06 01:34:43;;;;;;;4.37;2.20;;;;;;;2.96;81.09;100301.70;1688766;84;20186;-77
2022/02/06 01:37:35;;;;;;;3.75;1.47;;;;;;;2.94;80.97;100300.41;1694588;84;21052;-77
2022/02/06 01:40:40;;;;;;;3.05;1.60;;;;;;;2.92;81.01;100294.43;1694310;84;21060;-78
2022/02/06 01:43:21;;;;;;;5.72;2.33;;;;;;;2.91;81.02;100288.89;1694324;84;21091;-77
2022/02/06 02:01:12;;;;;;;6.42;2.10;;;;;;;2.79;81.21;100230.04;1697867;84;20972;-79
2022/02/06 02:03:54;;;;;;;2.80;2.00;;;;;;;2.78;81.14;100229.61;1697117;84;20925;-78
2022/02/06 02:09:34;;;;;;;5.65;1.90;;;;;;;2.76;81.23;100222.77;1696829;84;21397;-77
2022/02/06 02:12:22;;;;;;;6.42;2.33;;;;;;;2.74;81.17;100215.10;1697085;84;20973;-78
2022/02/06 02:15:11;;;;;;;4.25;2.00;;;;;;;2.72;81.19;100215.50;1676840;84;20965;-79
2022/02/06 02:30:20;;;;;;;4.80;2.42;;;;;;;2.66;81.36;100172.91;1695845;84;20945;-78
2022/02/06 02:42:58;;;;;;;4.92;2.15;;;;;;;2.62;81.49;100138.41;1694384;84;21135;-79
2022/02/06 02:47:44;;;;;;;3.00;2.42;;;;;;;2.58;81.55;100129.05;1722692;83;21059;-79
2022/02/06 02:50:30;;;;;;;4.00;2.37;;;;;;;2.59;81.56;100125.66;1694573;84;21075;-79
2022/02/06 02:59:14;;;;;;;5.40;2.55;;;;;;;2.58;81.72;100112.47;1691314;84;20929;-79
2022/02/06 03:01:59;;;;;;;2.87;1.85;;;;;;;2.58;81.66;100091.63;1685651;84;20957;-79
2022/02/06 03:04:47;;;;;;;3.75;2.15;;;;;;;2.58;81.67;100104.81;1665483;84;21410;-78
2022/02/06 03:07:29;;;;;;;;;;;;;;;2.59;81.71;100100.14;1680803;84;20981;-77
2022/02/06 03:10:14;;;;;;;2.85;2.27;;;;;;;2.60;81.84;100095.47;1663007;86;20465;-79
2022/02/06 03:13:01;;;;;;;3.83;2.00;;;;;;;2.60;81.77;100089.09;1673281;84;21454;-79
2022/02/06 03:21:40;;;;;;;3.20;2.20;;;;;;;2.60;81.81;100077.60;1717217;83;20917;-79
2022/02/06 03:24:26;;;;;;;4.00;2.40;;;;;;;2.61;81.85;100070.34;1685777;84;21428;-79
2022/02/06 03:27:11;;;;;;;4.37;2.10;;;;;;;2.60;81.89;100074.59;1691001;84;20929;-79
2022/02/06 03:29:55;;;;;;;2.17;1.95;;;;;;;2.62;81.96;100073.33;1691542;84;20936;-79
2022/02/06 03:32:40;;;;;;;2.62;2.20;;;;;;;2.61;81.86;100062.27;1691400;84;20918;-78
2022/02/06 03:35:24;;;;;;;2.60;1.95;;;;;;;2.61;81.91;100061.41;1691003;84;20993;-79
2022/02/06 03:38:09;;;;;;;3.20;2.33;;;;;;;2.60;81.90;100051.63;1647954;86;20969;-79
2022/02/06 03:41:00;;;;;;;3.02;1.72;;;;;;;2.60;81.94;100050.80;1663450;86;21442;-79
2022/02/06 03:43:51;;;;;;;;;;;;;;;2.59;81.95;100060.16;1692545;83;21370;-79
2022/02/06 03:46:31;;;;;;;2.40;1.92;;;;;;;2.59;82.17;100047.81;1689384;83;20131;-78
2022/02/06 03:49:16;;;;;;;;;;;;;;;2.58;82.00;100035.90;1722671;83;20909;-78
2022/02/06 03:51:58;;;;;;;2.35;2.15;;;;;;;2.58;82.13;100029.52;1713488;83;20170;-79
2022/02/06 03:54:43;;;;;;;2.58;2.10;;;;;;;2.57;82.07;100008.25;1690889;84;20965;-78
2022/02/06 03:57:27;;;;;;;3.77;2.20;;;;;;;2.56;82.07;100012.92;1690391;84;20925;-78
2022/02/06 04:00:13;;;;;;;2.77;1.62;;;;;;;2.58;82.10;99996.34;1663682;84;20965;-78
2022/02/06 04:02:57;;;;;;;1.83;1.67;;;;;;;2.59;82.12;99991.25;1663319;86;20957;-78
2022/02/06 04:05:47;;;;;;;2.95;2.15;;;;;;;2.59;82.13;99993.80;1672397;84;20953;-79
2022/02/06 04:08:34;;;;;;;2.55;1.95;;;;;;;2.60;82.19;99985.72;1690726;84;20968;-78
2022/02/06 04:11:25;;;;;;;1.98;1.77;;;;;;;2.61;82.26;99979.31;1690511;84;21850;-78
2022/02/06 04:14:09;;;;;;;5.17;2.30;;;;;;;2.62;82.28;99977.20;1688138;84;21615;-79
2022/02/06 04:16:59;;;;;;;2.98;2.35;;;;;;;2.63;82.23;99966.14;1697434;83;21111;-79
2022/02/06 04:19:37;;;;;;;2.67;2.12;;;;;;;2.63;82.28;99967.84;1720517;83;20913;-79
2022/02/06 04:22:22;;;;;;;3.08;1.60;;;;;;;2.65;82.36;99961.05;1691056;83;20941;-78
2022/02/06 04:25:07;;;;;;;3.23;2.23;;;;;;;2.66;82.34;99944.89;1691009;84;20960;-78
2022/02/06 04:27:52;;;;;;;2.05;1.85;;;;;;;2.67;82.37;99937.66;1687441;84;20913;-78
2022/02/06 04:30:36;;;;;;;1.87;1.72;;;;;;;2.65;82.38;99931.70;1690875;84;21449;-79
2022/02/06 04:33:20;;;;;;;1.85;1.67;;;;;;;2.65;82.44;99924.89;1691128;84;20945;-78
2022/02/06 04:36:10;;;;;;;1.77;1.62;;;;;;;2.65;82.45;99922.34;1690881;84;20984;-78
2022/02/06 04:39:04;;;;;;;;;;;;;;;2.68;82.50;99911.30;1693083;84;20933;-78
2022/02/06 04:42:10;;;;;;;3.83;1.95;;;;;;;2.69;82.70;99909.17;1689806;84;20134;-79
2022/02/06 04:45:15;;;;;;;2.42;1.80;;;;;;;2.70;82.56;99895.98;1691190;84;21433;-80
2022/02/06 04:51:21;;;;;;;3.08;2.00;;;;;;;2.70;82.62;99881.52;1691912;83;20965;-80
2022/02/06 04:53:57;;;;;;;2.85;1.87;;;;;;;2.70;82.62;99879.39;1691804;84;20917;-79
2022/02/06 05:20:43;;;;;;;1.82;1.70;;;;;;;2.78;83.23;99854.33;1645537;87;21010;-80
2022/02/06 05:23:24;;;;;;;2.37;1.60;;;;;;;2.79;83.10;99855.18;1641687;85;21135;-79
2022/02/06 05:29:04;;;;;;;1.65;1.55;;;;;;;2.83;83.13;99846.69;1626505;87;22235;-79
2022/02/06 05:34:35;;;;;;;1.55;1.45;;;;;;;2.85;83.16;99839.45;1676662;84;21096;-79
2022/02/06 05:37:20;;;;;;;4.37;1.62;;;;;;;2.86;83.21;99836.05;1695394;84;21118;-79
2022/02/06 05:40:06;;;;;;;2.27;1.72;;;;;;;2.87;83.21;99831.38;1694920;84;21096;-79
2022/02/06 05:42:51;;;;;;;1.50;1.25;;;;;;;2.88;83.22;99828.40;1697823;84;21047;-79
2022/02/06 05:45:35;;;;;;;2.08;1.75;;;;;;;2.89;83.22;99818.19;1696893;83;21087;-79
2022/02/06 05:48:20;;;;;;;2.17;1.57;;;;;;;2.91;83.18;99821.60;1695841;83;21012;-80
2022/02/06 05:51:05;;;;;;;1.67;1.50;;;;;;;2.92;83.29;99812.24;1696232;84;21044;-79
2022/02/06 05:53:49;;;;;;;1.72;1.50;;;;;;;2.93;83.33;99811.39;1683981;84;21060;-79
2022/02/06 05:56:34;;;;;;;2.75;1.20;;;;;;;2.93;83.28;99804.58;1695494;84;21104;-79
2022/02/06 05:59:19;;;;;;;3.60;1.92;;;;;;;2.96;83.29;99803.31;1683369;84;21048;-79
2022/02/06 06:02:04;;;;;;;2.25;1.42;;;;;;;2.97;83.37;99799.06;1695707;84;21524;-79
2022/02/06 06:04:49;;;;;;;3.30;1.77;;;;;;;2.98;83.34;99794.38;1671757;84;21535;-79
2022/02/06 06:07:35;;;;;;;3.00;1.82;;;;;;;2.99;83.37;99789.70;1695016;84;21523;-79
2022/02/06 06:10:20;;;;;;;3.45;1.40;;;;;;;2.99;83.33;99779.48;1697382;84;21412;-79
2022/02/06 06:13:04;;;;;;;2.65;1.42;;;;;;;3.00;83.40;99782.47;1694020;84;20905;-78
2022/02/06 06:15:49;;;;;;;2.92;1.90;;;;;;;2.99;83.45;99776.50;1699066;83;21967;-78
2022/02/06 06:18:35;;;;;;;1.70;1.20;;;;;;;3.02;83.51;99774.38;1697268;84;20925;-78
2022/02/06 06:21:22;;;;;;;2.20;1.70;;;;;;;3.02;83.49;99770.55;1697642;84;21106;-79
2022/02/06 06:24:06;;;;;;;3.72;2.05;;;;;;;3.03;83.51;99765.02;1698055;84;20968;-79
2022/02/06 06:26:51;;;;;;;3.60;1.67;;;;;;;3.03;83.55;99759.91;1701919;83;20949;-79
2022/02/06 06:29:36;;;;;;;1.60;1.20;;;;;;;3.05;83.57;99758.20;1698241;84;20960;-79
2022/02/06 06:32:21;;;;;;;1.45;1.32;;;;;;;3.07;83.59;99752.67;1673528;84;20940;-79
2022/02/06 06:35:06;;;;;;;2.45;1.35;;;;;;;3.07;83.61;99758.63;1697302;84;21446;-79
2022/02/06 06:37:52;;;;;;;2.40;1.50;;;;;;;3.10;83.63;99744.59;1697295;84;21339;-78
2022/02/06 06:40:36;;;;;;;2.22;1.80;;;;;;;3.13;83.70;99741.16;1693190;84;20945;-79
2022/02/06 06:43:20;;;;;;;2.47;1.42;;;;;;;3.15;83.65;99736.47;1693147;84;20953;-79
2022/02/06 06:46:05;;;;;;;3.80;1.70;;;;;;;3.17;83.66;99723.70;1672008;83;20994;-79
2022/02/06 06:48:49;;;;;;;3.37;1.80;;;;;;;3.18;83.69;99721.57;1692941;84;20901;-79
2022/02/06 06:51:33;;;;;;;1.65;1.55;;;;;;;3.21;83.75;99730.51;1695624;84;20905;-79
2022/02/06 06:54:22;;;;;;;2.50;1.42;;;;;;;3.22;83.84;99726.67;1697567;84;20917;-79
2022/02/06 06:57:14;;;;;;;;;;;;;;;3.24;83.82;99715.19;1690675;84;20914;-79
2022/02/06 07:02:38;;;;;;;2.17;1.40;;;;;;;3.28;83.85;99703.68;1689443;84;21088;-79
2022/02/06 07:05:23;;;;;;;3.52;1.45;;;;;;;3.29;83.87;99693.89;1684410;84;21080;-79
2022/02/06 07:08:07;;;;;;;2.15;1.52;;;;;;;3.32;83.94;99687.50;1671920;84;20997;-80
2022/02/06 07:10:52;;;;;;;3.05;1.80;;;;;;;3.35;83.98;99692.17;1671970;84;21683;-79
2022/02/06 07:13:37;;;;;;;3.87;1.42;;;;;;;3.38;83.94;99695.58;1675488;84;21406;-80
2022/02/06 07:16:22;;;;;;;1.60;1.10;;;;;;;3.40;83.98;99692.59;1679174;83;21074;-80
2022/02/06 07:19:06;;;;;;;2.10;1.87;;;;;;;3.41;83.99;99680.67;1685291;84;21136;-79
2022/02/06 07:21:50;;;;;;;2.30;1.47;;;;;;;3.44;84.00;99683.22;1688333;84;21088;-79
2022/02/06 07:24:36;;;;;;;2.47;1.52;;;;;;;3.45;84.04;99679.38;1688274;83;21174;-80
2022/02/06 07:27:28;;;;;;;3.10;1.77;;;;;;;3.48;84.07;99674.69;1688654;83;21000;-79
2022/02/06 07:30:09;;;;;;;2.33;1.60;;;;;;;3.50;84.09;99668.72;1684794;83;20984;-79
2022/02/06 07:32:54;;;;;;;4.78;1.67;;;;;;;3.53;84.08;99669.14;1690714;83;20935;-82
2022/02/06 07:35:39;;;;;;;1.70;1.27;;;;;;;3.54;84.12;99656.36;1672877;84;21580;-83
2022/02/06 07:38:23;;;;;;;3.12;1.47;;;;;;;3.57;84.18;99659.33;1684306;84;20937;-83
2022/02/06 07:41:07;;;;;;;1.87;1.65;;;;;;;3.59;84.18;99658.47;1691021;84;20931;-83
2022/02/06 07:43:52;;;;;;;3.47;1.60;;;;;;;3.62;84.22;99653.78;1691252;84;20959;-82
2022/02/06 07:46:48;;;;;;;2.55;1.35;;;;;;;3.64;84.20;99655.88;1686672;83;20931;-82
2022/02/06 07:49:33;;;;;;;1.95;1.45;;;;;;;3.68;84.23;99650.32;1677310;84;20984;-82
2022/02/06 07:52:22;;;;;;;2.50;1.60;;;;;;;3.68;84.23;99643.50;1679107;84;20973;-82
2022/02/06 07:55:08;;;;;;;2.70;1.50;;;;;;;3.70;84.29;99644.34;1683846;84;20928;-83
2022/02/06 07:57:53;;;;;;;1.90;1.35;;;;;;;3.72;84.31;99637.52;1700142;84;20972;-83
2022/02/06 08:00:37;;;;;;;2.27;1.47;;;;;;;3.74;84.34;99631.12;1707449;82;20974;-84
2022/02/06 08:03:24;;;;;;;2.92;1.45;;;;;;;3.73;84.36;99637.09;1677616;84;20982;-84
2022/02/06 08:06:10;;;;;;;2.65;1.60;;;;;;;3.75;84.38;99634.10;1672143;84;21646;-83
2022/02/06 08:08:56;;;;;;;2.52;1.75;;;;;;;3.74;84.35;99628.14;1663219;84;21102;-83
2022/02/06 08:11:47;;;;;;;3.25;1.50;;;;;;;3.75;84.40;99630.27;1659869;84;21103;-83
2022/02/06 08:14:50;;;;;;;1.65;1.35;;;;;;;3.75;84.39;99626.43;1665545;84;21094;-83
2022/02/06 08:17:38;;;;;;;2.15;1.20;;;;;;;3.76;84.46;99623.02;1670877;84;21102;-82
2022/02/06 08:20:23;;;;;;;1.45;1.15;;;;;;;3.78;84.43;99619.59;1670231;84;21122;-79
2022/02/06 08:23:08;;;;;;;1.65;1.30;;;;;;;3.77;84.46;99610.23;1664762;84;21091;-80
2022/02/06 08:25:52;;;;;;;2.05;1.57;;;;;;;3.78;84.54;99613.20;1665250;84;21062;-81
2022/02/06 08:28:39;;;;;;;2.58;1.40;;;;;;;3.79;84.60;99599.56;1643016;84;33762;-79
2022/02/06 08:31:24;;;;;;;1.13;1.07;;;;;;;3.81;84.59;99595.30;1663577;84;21591;-79
2022/02/06 08:34:08;;;;;;;3.67;1.52;;;;;;;3.83;84.63;99592.73;1665197;84;21118;-79
2022/02/06 08:36:53;;;;;;;2.33;1.47;;;;;;;3.84;84.67;99590.59;1664365;84;21118;-78
2022/02/06 08:39:40;;;;;;;1.87;1.50;;;;;;;3.85;84.67;99596.98;1672361;84;21051;-83
2022/02/06 08:42:24;;;;;;;2.12;1.32;;;;;;;3.87;84.70;99587.59;1675861;84;21090;-83
2022/02/06 08:45:11;;;;;;;3.00;1.77;;;;;;;3.89;84.74;99577.36;1656838;84;21103;-86
2022/02/06 08:47:57;;;;;;;3.33;1.45;;;;;;;3.90;84.72;99577.34;1671422;84;21074;-84
2022/02/06 08:50:42;;;;;;;3.70;1.57;;;;;;;3.92;84.76;99570.95;1668524;84;21035;-80
2022/02/06 08:53:26;;;;;;;2.22;1.55;;;;;;;3.94;84.76;99570.08;1676187;84;21087;-79
2022/02/06 08:56:11;;;;;;;3.62;1.52;;;;;;;3.95;84.80;99567.94;1658028;84;21059;-76
2022/02/06 08:58:55;;;;;;;4.50;2.25;;;;;;;3.98;84.84;99573.04;1653842;85;21048;-76
2022/02/06 09:01:41;;;;;;;6.08;2.05;;;;;;;4.01;84.87;99563.65;1657082;84;21134;-79
2022/02/06 09:04:28;;;;;;;3.02;2.33;;;;;;;4.03;85.17;99564.48;1657312;85;21142;-74
2022/02/06 09:07:13;;;;;;;2.45;1.75;;;;;;;4.03;85.17;99564.48;1645179;84;20971;-74
2022/02/06 09:09:59;;;;;;;2.00;1.62;;;;;;;4.05;84.90;99561.49;1657959;84;20964;-74
2022/02/06 09:12:50;;;;;;;3.55;2.02;;;;;;;4.06;84.96;99557.64;1653775;85;20956;-74
2022/02/06 09:15:31;;;;;;;3.60;2.02;;;;;;;4.08;84.99;99553.80;1655080;85;20980;-75
2022/02/06 09:18:15;;;;;;;2.33;1.50;;;;;;;4.10;85.01;99549.09;1658945;84;20932;-74
2022/02/06 09:21:00;;;;;;;2.50;1.47;;;;;;;4.12;85.03;99546.09;1656286;85;21413;-74
2022/02/06 09:23:44;;;;;;;1.87;1.30;;;;;;;4.15;85.02;99547.78;1651596;85;20929;-74
2022/02/06 09:26:28;;;;;;;2.45;1.67;;;;;;;4.17;85.06;99543.47;1656630;85;20972;-74
2022/02/06 09:29:13;;;;;;;3.05;1.60;;;;;;;4.19;85.10;99530.23;1658942;84;20960;-74
2022/02/06 09:31:57;;;;;;;2.42;1.55;;;;;;;4.23;85.10;99529.36;1653683;84;20960;-74
2022/02/06 09:37:27;;;;;;;2.00;1.32;;;;;;;4.28;85.18;99513.53;1650783;84;21459;-74
2022/02/06 09:40:15;;;;;;;7.08;2.08;;;;;;;4.31;85.12;99521.19;1642433;85;20992;-74
2022/02/06 09:43:00;;;;;;;1.52;1.20;;;;;;;4.34;85.19;99513.48;1645031;84;21004;-74
2022/02/06 09:45:48;;;;;;;3.60;1.52;;;;;;;4.37;85.15;99512.61;1646400;84;21530;-74
2022/02/06 09:48:33;;;;;;;2.30;1.57;;;;;;;4.39;85.24;99516.01;1657884;84;20960;-74
2022/02/06 09:51:17;;;;;;;1.60;1.15;;;;;;;4.43;85.24;99510.00;1644639;86;20971;-74
2022/02/06 09:54:03;;;;;;;2.72;1.17;;;;;;;4.43;85.26;99504.45;1656648;84;20928;-76
2022/02/06 09:56:53;;;;;;;2.83;1.80;;;;;;;4.46;85.29;99506.98;1658032;84;21419;-77
2022/02/06 09:59:38;;;;;;;2.65;1.62;;;;;;;4.47;85.29;99498.44;1653772;85;20920;-76
2022/02/06 10:02:30;;;;;;;3.15;1.47;;;;;;;4.50;85.29;99497.13;1674589;85;20951;-76
2022/02/06 10:05:17;;;;;;;3.05;1.90;;;;;;;4.51;85.35;99482.63;1669791;85;21531;-76
2022/02/06 10:08:31;;;;;;;3.35;1.70;;;;;;;4.54;85.35;99481.31;1683140;84;20936;-76
2022/02/06 10:11:17;;;;;;;1.95;1.57;;;;;;;4.54;85.37;99478.75;1672953;84;20983;-76
2022/02/06 10:14:01;;;;;;;1.65;1.47;;;;;;;4.55;85.35;99472.34;1663932;85;20932;-77
2022/02/06 10:16:51;;;;;;;2.20;1.70;;;;;;;4.56;85.40;99469.34;1676935;84;20920;-77
2022/02/06 10:19:38;;;;;;;2.25;1.35;;;;;;;4.58;85.44;99465.91;1702397;84;21441;-77
2022/02/06 10:22:37;;;;;;;1.90;1.27;;;;;;;4.59;85.48;99465.05;1702584;84;20932;-77
2022/02/06 10:25:16;;;;;;;2.80;1.65;;;;;;;4.63;85.51;99459.03;1702776;84;21824;-77
2022/02/06 10:31:09;;;;;;;3.08;1.70;;;;;;;4.68;85.56;99446.15;1702728;84;21170;-77
2022/02/06 10:33:55;;;;;;;2.25;1.27;;;;;;;4.71;85.56;99442.27;1702650;84;20960;-77
2022/02/06 10:36:39;;;;;;;2.15;1.50;;;;;;;4.74;85.59;99443.95;1690942;84;20980;-77
2022/02/06 10:39:24;;;;;;;2.42;1.20;;;;;;;4.78;85.64;99434.09;1702939;84;20945;-77
2022/02/06 10:42:27;;;;;;;2.05;1.30;;;;;;;4.83;85.70;99418.24;1702553;84;20932;-76
2022/02/06 10:45:26;;;;;;;3.80;1.42;;;;;;;4.87;85.71;99416.06;1702807;84;21438;-76
2022/02/06 10:48:23;;;;;;;2.50;1.40;;;;;;;4.93;85.72;99411.71;1706909;82;20928;-76
2022/02/06 10:51:07;;;;;;;2.47;1.42;;;;;;;4.97;85.74;99416.36;1675777;85;20969;-76
2022/02/06 10:53:59;;;;;;;2.02;1.37;;;;;;;5.02;85.73;99404.34;1676309;85;20928;-76
2022/02/06 10:57:07;;;;;;;2.37;1.22;;;;;;;5.06;85.82;99399.59;1675794;85;20913;-77
2022/02/06 10:59:53;;;;;;;2.30;1.15;;;;;;;5.10;85.75;99381.19;1702847;84;21444;-76
2022/02/06 11:02:57;;;;;;;1.42;0.88;;;;;;;5.14;85.78;99384.97;1700025;84;20924;-76
2022/02/06 11:06:05;;;;;;;2.75;1.32;;;;;;;5.19;85.84;99377.22;1704867;82;21000;-76
2022/02/06 11:08:39;;;;;;;1.87;1.22;;;;;;;5.21;85.84;99368.61;1699026;84;21130;-77
2022/02/06 11:11:35;;;;;;;3.08;1.30;;;;;;;5.24;85.84;99358.31;1699450;84;21651;-77
2022/02/06 11:14:30;;;;;;;2.42;1.10;;;;;;;5.28;85.85;99352.70;1701112;84;22217;-77
2022/02/06 11:17:19;;;;;;;1.55;1.10;;;;;;;5.29;85.84;99350.12;1715306;82;21064;-75
2022/02/06 11:20:11;;;;;;;2.00;1.30;;;;;;;5.33;85.85;99343.23;1690942;84;21484;-75
2022/02/06 11:23:01;;;;;;;1.67;1.10;;;;;;;5.34;85.88;99337.23;1700736;84;21136;-75
2022/02/06 11:25:43;;;;;;;1.70;1.35;;;;;;;5.36;85.90;99344.47;1699980;84;21329;-75
2022/02/06 11:28:27;;;;;;;2.10;1.17;;;;;;;5.39;85.96;99335.89;1693437;84;21067;-75
2022/02/06 11:31:14;;;;;;;3.20;1.32;;;;;;;5.41;85.95;99332.44;1687094;84;21127;-76
2022/02/06 11:33:59;;;;;;;1.80;1.40;;;;;;;5.42;85.95;99330.28;1687673;84;20933;-76
2022/02/06 11:43:54;;;;;;;1.95;1.20;;;;;;;5.44;85.98;99315.72;1639971;87;21752;-76
2022/02/06 11:46:59;;;;;;;1.95;1.20;;;;;;;5.47;86.05;99322.52;1679863;82;198624;-77
2022/02/06 11:49:48;;;;;;;2.02;1.40;;;;;;;5.48;86.05;99326.77;1683119;82;20944;-78
2022/02/06 11:52:53;;;;;;;2.77;1.45;;;;;;;5.50;86.08;99312.22;1680507;84;20957;-79
2022/02/06 11:55:47;;;;;;;4.90;2.12;;;;;;;5.50;86.12;99307.09;1695677;83;20928;-79
2022/02/06 11:58:33;;;;;;;2.15;1.15;;;;;;;5.52;86.12;99305.34;1694502;82;21424;-79
2022/02/06 12:01:21;;;;;;;2.55;1.70;;;;;;;5.52;86.16;99299.78;1678656;84;20995;-79
2022/02/06 12:04:20;;;;;;;2.27;1.35;;;;;;;5.55;86.16;99293.75;1692853;84;21051;-79
2022/02/06 12:07:04;;;;;;;3.52;1.67;;;;;;;5.57;86.19;99281.75;1699178;82;20981;-79
2022/02/06 12:09:51;;;;;;;2.47;1.98;;;;;;;5.60;86.21;99289.39;1699024;83;21429;-79
2022/02/06 12:12:36;;;;;;;2.85;1.75;;;;;;;5.62;86.18;99280.80;1702029;84;20969;-79
2022/02/06 12:15:34;;;;;;;3.00;1.42;;;;;;;5.62;86.16;99264.58;1700594;82;20946;-80
2022/02/06 12:18:16;;;;;;;3.45;1.87;;;;;;;5.63;86.23;99270.96;1696004;82;20935;-79
2022/02/06 12:21:18;;;;;;;1.62;1.37;;;;;;;5.65;86.26;99264.52;1697527;82;20955;-79
2022/02/06 12:24:03;;;;;;;1.47;1.20;;;;;;;5.64;86.21;99260.27;1697619;82;20968;-78
2022/02/06 12:26:48;;;;;;;1.65;1.27;;;;;;;5.63;86.26;99247.88;1643204;85;20977;-78
2022/02/06 12:29:39;;;;;;;2.02;1.20;;;;;;;5.65;86.31;99247.42;1695048;82;21123;-79
2022/02/06 12:32:37;;;;;;;4.87;1.60;;;;;;;5.67;86.33;99238.41;1693511;84;21113;-78
2022/02/06 12:38:21;;;;;;;2.20;2.00;;;;;;;5.70;86.30;99234.95;1699245;84;20976;-79
2022/02/06 12:41:19;;;;;;;2.45;1.60;;;;;;;5.71;86.32;99228.95;1692275;82;20988;-79
2022/02/06 12:44:07;;;;;;;6.22;5.42;;;;;;;5.73;86.31;99222.03;1698788;82;21045;-79
2022/02/06 12:46:58;;;;;;;14.58;8.53;;;;;;;5.73;86.32;99220.75;1683292;84;21090;-79
2022/02/06 12:49:43;;;;;;;13.20;7.12;;;;;;;5.75;86.37;99215.16;1700148;82;21079;-79
2022/02/06 12:52:34;;;;;;;9.23;6.47;;;;;;;5.77;86.38;99221.95;1685668;83;21099;-79
2022/02/06 12:55:22;;;;;;;12.28;10.23;;;;;;;5.78;86.34;99210.82;1696554;82;20992;-79
2022/02/06 12:58:09;;;;;;;8.28;7.37;;;;;;;5.78;86.39;99212.10;1635729;85;20972;-79
2022/02/06 13:00:55;;;;;;;;;;;;;;;5.79;86.37;99204.81;1694643;82;21540;-79
2022/02/06 13:03:41;;;;;;;4.28;3.87;;;;;;;5.81;86.50;99202.22;1701342;84;25569;-79
2022/02/06 13:06:42;;;;;;;3.50;3.02;;;;;;;5.81;86.41;99196.66;1702842;82;20976;-79
2022/02/06 13:09:32;;;;;;;3.60;2.33;;;;;;;5.82;86.45;99182.11;1697641;83;21419;-79
2022/02/06 13:12:28;;;;;;;4.55;3.12;;;;;;;5.82;86.43;99188.09;1702656;84;20970;-79
2022/02/06 13:18:10;;;;;;;5.45;2.22;;;;;;;5.86;86.40;99169.20;1702784;82;21399;-79
2022/02/06 13:21:00;;;;;;;;;;;;;;;5.87;86.40;99168.75;1689060;82;20944;-79
2022/02/06 13:24:11;;;;;;;3.00;1.92;;;;;;;5.87;86.45;99160.63;1693027;82;20150;-79
2022/02/06 13:27:10;;;;;;;5.12;2.10;;;;;;;5.87;86.44;99155.49;1695056;82;20932;-79
2022/02/06 13:30:06;;;;;;;3.77;2.20;;;;;;;5.90;86.43;99136.66;1690073;82;20937;-79
2022/02/06 13:35:41;;;;;;;2.77;1.98;;;;;;;5.90;86.47;99128.97;1696467;82;20944;-79
2022/02/06 13:38:20;;;;;;;;;;;;;;;5.91;86.47;99108.84;1695524;82;20976;-78
2022/02/06 13:41:17;;;;;;;3.45;2.83;;;;;;;5.92;86.48;99107.53;1692338;82;20153;-76
2022/02/06 13:44:07;;;;;;;5.47;2.20;;;;;;;5.92;86.47;99092.14;1691676;82;21477;-76
2022/02/06 13:46:55;;;;;;;5.35;3.40;;;;;;;5.96;86.45;99094.20;1692036;82;20937;-76
2022/02/06 13:49:47;;;;;;;4.15;1.90;;;;;;;5.98;86.45;99084.75;1692813;82;21889;-77
2022/02/06 13:52:29;;;;;;;2.77;2.08;;;;;;;5.99;86.47;99073.61;1691643;83;20968;-77
2022/02/06 13:55:16;;;;;;;4.95;2.47;;;;;;;6.00;86.44;99067.61;1688790;81;20968;-77
2022/02/06 13:58:00;;;;;;;2.87;2.15;;;;;;;6.02;86.43;99057.31;1677451;83;20972;-77
2022/02/06 14:01:05;;;;;;;2.83;1.92;;;;;;;6.03;86.41;99051.30;1684276;83;20929;-77
2022/02/06 14:03:52;;;;;;;4.43;3.87;;;;;;;6.05;86.43;99035.43;1671005;84;20933;-77
2022/02/06 14:06:47;;;;;;;3.83;2.27;;;;;;;6.06;86.43;99031.55;1673499;84;20972;-77
2022/02/06 14:12:28;;;;;;;4.97;2.80;;;;;;;6.12;86.45;99019.86;1678005;83;20927;-77
2022/02/06 14:15:25;;;;;;;6.10;3.47;;;;;;;6.12;86.45;99004.46;1672566;84;21557;-77
2022/02/06 14:18:10;;;;;;;10.80;8.40;;;;;;;6.13;86.44;99004.87;1680814;83;20935;-77
2022/02/06 14:20:59;;;;;;;12.73;8.63;;;;;;;6.14;86.46;98990.31;1677795;83;20957;-77
2022/02/06 14:23:44;;;;;;;7.15;5.95;;;;;;;6.15;86.48;98988.99;1686151;83;20925;-77
2022/02/06 14:26:28;;;;;;;5.80;3.70;;;;;;;6.17;86.46;98982.10;1683152;83;21520;-77
2022/02/06 14:29:16;;;;;;;6.80;3.45;;;;;;;6.16;86.44;98972.72;1683395;83;20935;-77
2022/02/06 14:32:20;;;;;;;6.62;4.08;;;;;;;6.17;86.44;98968.42;1685784;83;20965;-77
2022/02/06 14:35:15;;;;;;;5.58;3.15;;;;;;;6.14;86.41;98965.94;1666721;84;20977;-77
2022/02/06 14:38:04;;;;;;;5.22;3.60;;;;;;;6.11;86.44;98951.45;1676350;82;20961;-75
2022/02/06 14:40:53;;;;;;;6.70;3.22;;;;;;;6.07;86.43;98944.71;1667995;84;21559;-76
2022/02/06 14:43:38;;;;;;;5.58;3.75;;;;;;;6.04;86.43;98944.78;1675387;83;21068;-76
2022/02/06 14:46:25;;;;;;;5.65;3.98;;;;;;;6.01;86.47;98933.31;1679450;83;21162;-76
2022/02/06 14:49:17;;;;;;;7.20;4.37;;;;;;;5.99;86.47;98928.66;1680803;83;21068;-75
2022/02/06 14:51:59;;;;;;;6.60;4.30;;;;;;;5.96;86.50;98905.20;1677578;83;21109;-75
2022/02/06 14:54:46;;;;;;;;;;;;;;;5.94;86.48;98899.27;1635732;85;21176;-75
2022/02/06 14:57:30;;;;;;;10.15;7.30;;;;;;;5.93;86.51;98898.87;1611100;86;20655;-75
2022/02/06 15:00:15;;;;;;;5.60;4.33;;;;;;;5.94;86.51;98888.17;1681775;83;21068;-75
2022/02/06 15:03:00;;;;;;;5.92;3.60;;;;;;;5.93;86.51;98882.63;1676043;83;21103;-75
2022/02/06 15:05:47;;;;;;;5.47;3.50;;;;;;;5.94;86.54;98870.21;1685074;83;21099;-75
2022/02/06 15:08:32;;;;;;;5.22;2.98;;;;;;;5.94;86.53;98861.23;1683678;83;21120;-76
2022/02/06 15:11:17;;;;;;;6.47;3.47;;;;;;;5.94;86.52;98856.95;1679942;83;21108;-75
2022/02/06 15:14:01;;;;;;;4.95;3.37;;;;;;;5.94;86.48;98844.56;1684448;83;21064;-75
2022/02/06 15:16:48;;;;;;;4.72;3.30;;;;;;;5.88;86.49;98824.16;1675001;83;21076;-75
2022/02/06 15:19:32;;;;;;;4.87;3.30;;;;;;;5.92;86.51;98829.64;1673638;83;21091;-75
2022/02/06 15:22:17;;;;;;;4.62;3.22;;;;;;;5.89;86.51;98825.44;1682466;83;21116;-76
2022/02/06 15:25:02;;;;;;;8.45;3.45;;;;;;;5.90;86.52;98821.15;1681684;82;21091;-75